Time;durP1;ratioP1;P1;durP2;ratioP2;P2;SDS_P1;SDS_P2;PMS_P1;PMS_P2;Temp;Humidity;BMP_temperature;BMP_pressure;BME280_temperature;BME280_humidity;BME280_pressure;Samples;Min_cycle;Max_cycle;Signal;HPM_P1;HPM_P2
2022/01/27 00:02:36;;;;;;;7.00;6.40;;;3.20;99.90;;;;;;5057205;28;20227;-80
2022/01/27 00:05:12;;;;;;;13.43;6.32;;;3.20;99.90;;;;;;5056284;28;20276;-78
2022/01/27 00:07:39;;;;;;;20.15;9.10;;;3.20;99.90;;;;;;5057418;28;20214;-80
2022/01/27 00:10:16;;;;;;;2.38;1.90;;;3.20;99.90;;;;;;5057252;28;20198;-79
2022/01/27 00:12:43;;;;;;;13.20;6.75;;;3.20;99.90;;;;;;5062193;28;20221;-80
2022/01/27 00:15:13;;;;;;;9.20;3.60;;;3.20;99.90;;;;;;5071975;28;20233;-77
2022/01/27 00:17:44;;;;;;;2.30;2.20;;;3.20;99.90;;;;;;5071880;28;20225;-80
2022/01/27 00:20:12;;;;;;;1.88;1.77;;;3.30;99.90;;;;;;5069334;28;20205;-79
2022/01/27 00:22:39;;;;;;;3.88;3.58;;;3.30;99.90;;;;;;5073678;28;20217;-80
2022/01/27 00:25:07;;;;;;;10.15;5.40;;;3.30;99.90;;;;;;5071410;28;20222;-79
2022/01/27 00:27:35;;;;;;;11.30;6.72;;;3.30;99.90;;;;;;5067540;28;20204;-80
2022/01/27 00:30:04;;;;;;;2.00;1.85;;;3.30;99.90;;;;;;5067722;28;20541;-76
2022/01/27 00:32:31;;;;;;;15.75;7.00;;;3.30;99.90;;;;;;5063347;28;20329;-79
2022/01/27 00:34:58;;;;;;;13.57;7.13;;;3.30;99.90;;;;;;5056340;28;20215;-80
2022/01/27 00:37:25;;;;;;;14.70;8.48;;;3.30;99.90;;;;;;5058033;28;20696;-80
2022/01/27 00:39:52;;;;;;;4.90;4.40;;;3.30;99.90;;;;;;5056916;28;20205;-80
2022/01/27 00:42:21;;;;;;;8.02;4.93;;;3.20;99.90;;;;;;5060433;28;20194;-80
2022/01/27 00:44:48;;;;;;;10.32;6.10;;;3.20;99.90;;;;;;5100483;22;20230;-77
2022/01/27 00:47:14;;;;;;;31.40;12.65;;;3.20;99.90;;;;;;5045037;28;20620;-77
2022/01/27 00:49:41;;;;;;;12.30;7.32;;;3.20;99.90;;;;;;5044809;28;20752;-76
2022/01/27 00:52:14;;;;;;;34.03;14.75;;;3.20;99.90;;;;;;5053071;28;20688;-75
2022/01/27 00:54:41;;;;;;;10.93;6.25;;;3.20;99.90;;;;;;5036601;28;20218;-76
2022/01/27 00:57:13;;;;;;;17.92;11.52;;;3.20;99.90;;;;;;5033504;28;20589;-76
2022/01/27 00:59:52;;;;;;;6.15;4.97;;;3.20;99.90;;;;;;5033343;28;20179;-77
2022/01/27 01:02:28;;;;;;;3.30;3.10;;;3.20;99.90;;;;;;5033264;28;20665;-77
2022/01/27 01:05:07;;;;;;;14.00;10.43;;;3.10;99.90;;;;;;5032994;28;20238;-77
2022/01/27 01:07:38;;;;;;;31.98;10.00;;;3.20;99.90;;;;;;5033430;28;20175;-76
2022/01/27 01:15:51;;;;;;;3.13;2.92;;;3.10;99.90;;;;;;5129151;27;20544;-76
2022/01/27 01:18:29;;;;;;;19.48;7.75;;;3.10;99.90;;;;;;5109229;28;20188;-77
2022/01/27 01:21:21;;;;;;;2.15;1.95;;;3.10;99.90;;;;;;5109544;28;20626;-76
2022/01/27 01:42:46;;;;;;;26.08;7.43;;;3.10;99.90;;;;;;5108080;28;20172;-77
2022/01/27 01:45:17;;;;;;;6.88;5.72;;;3.10;99.90;;;;;;5108613;28;20212;-77
2022/01/27 01:47:44;;;;;;;22.73;8.77;;;3.10;99.90;;;;;;5108998;28;20178;-77
2022/01/27 01:50:12;;;;;;;20.88;7.45;;;3.00;99.90;;;;;;5108660;28;20299;-77
2022/01/27 01:52:40;;;;;;;14.63;7.93;;;3.00;99.90;;;;;;5108562;28;20197;-77
2022/01/27 01:55:09;;;;;;;8.63;7.40;;;3.00;99.90;;;;;;5108424;28;20213;-77
2022/01/27 01:57:36;;;;;;;6.85;6.22;;;2.90;99.90;;;;;;5108939;28;20743;-77
2022/01/27 02:00:05;;;;;;;14.63;2.63;;;2.90;99.90;;;;;;5108206;28;20201;-77
2022/01/27 02:02:32;;;;;;;7.82;5.60;;;2.90;99.90;;;;;;5108535;28;20192;-77
2022/01/27 02:04:58;;;;;;;5.28;4.68;;;2.90;99.90;;;;;;5108449;28;20219;-77
2022/01/27 02:07:34;;;;;;;10.68;6.68;;;2.90;99.90;;;;;;5108695;28;20229;-77
2022/01/27 02:10:10;;;;;;;21.13;11.63;;;2.90;99.90;;;;;;5107056;28;20586;-76
2022/01/27 02:18:08;;;;;;;13.32;7.35;;;2.90;99.90;;;;;;5108378;28;20208;-77
2022/01/27 02:20:39;;;;;;;18.50;7.72;;;2.80;99.90;;;;;;5107920;28;20192;-77
2022/01/27 02:23:06;;;;;;;11.93;7.32;;;2.80;99.90;;;;;;5108203;28;20252;-78
2022/01/27 02:25:33;;;;;;;9.50;6.93;;;2.80;99.90;;;;;;5103715;28;20682;-77
2022/01/27 02:27:59;;;;;;;16.15;7.75;;;2.80;99.90;;;;;;5094973;28;20193;-77
2022/01/27 02:30:27;;;;;;;8.23;4.13;;;2.80;99.90;;;;;;5094478;28;20878;-78
2022/01/27 02:32:54;;;;;;;12.20;6.43;;;2.80;99.90;;;;;;5094986;28;20251;-78
2022/01/27 02:35:25;;;;;;;11.50;8.73;;;2.80;99.90;;;;;;5093945;28;20243;-78
2022/01/27 02:37:54;;;;;;;5.65;4.40;;;2.80;99.90;;;;;;5094997;28;20585;-78
2022/01/27 02:40:29;;;;;;;21.20;11.25;;;2.80;99.90;;;;;;5094502;28;20193;-77
2022/01/27 02:42:56;;;;;;;21.75;10.75;;;2.90;99.90;;;;;;5094832;28;20264;-77
2022/01/27 02:45:31;;;;;;;16.88;6.95;;;2.90;99.90;;;;;;5094125;28;20214;-78
2022/01/27 02:47:58;;;;;;;9.48;4.93;;;2.90;99.90;;;;;;5094568;28;20246;-77
2022/01/27 02:50:24;;;;;;;15.20;7.88;;;2.90;99.90;;;;;;5094314;28;20196;-77
2022/01/27 02:52:52;;;;;;;23.17;13.73;;;2.90;99.90;;;;;;5093963;28;20193;-77
2022/01/27 02:55:19;;;;;;;5.40;5.10;;;2.90;99.90;;;;;;5093679;28;20217;-77
2022/01/27 02:57:46;;;;;;;9.23;5.25;;;2.90;99.90;;;;;;5093844;28;20309;-77
2022/01/27 03:00:13;;;;;;;12.20;9.50;;;2.90;99.90;;;;;;5093481;28;20239;-77
2022/01/27 03:02:40;;;;;;;9.23;3.83;;;2.90;99.90;;;;;;5094070;28;20239;-78
2022/01/27 03:05:07;;;;;;;9.15;6.38;;;3.00;99.90;;;;;;5093507;28;20209;-77
2022/01/27 03:07:34;;;;;;;13.30;5.40;;;3.00;99.90;;;;;;5093684;28;20665;-77
2022/01/27 03:10:02;;;;;;;9.27;5.72;;;3.00;99.90;;;;;;5092902;28;20197;-78
2022/01/27 03:12:30;;;;;;;15.18;7.38;;;3.00;99.90;;;;;;5094007;28;20194;-77
2022/01/27 03:14:58;;;;;;;13.18;7.78;;;3.00;99.90;;;;;;5093370;28;20213;-77
2022/01/27 03:17:25;;;;;;;22.95;10.68;;;3.00;99.90;;;;;;5093314;28;20659;-77
2022/01/27 03:19:51;;;;;;;11.98;4.80;;;3.00;99.90;;;;;;5093508;28;20204;-77
2022/01/27 03:22:18;;;;;;;4.05;2.78;;;3.00;99.90;;;;;;5093806;28;20200;-78
2022/01/27 03:24:45;;;;;;;25.75;8.18;;;3.00;99.90;;;;;;5093327;28;20209;-78
2022/01/27 03:27:18;;;;;;;8.30;3.70;;;3.00;99.90;;;;;;5093292;28;20246;-78
2022/01/27 03:29:45;;;;;;;14.20;8.13;;;3.00;99.90;;;;;;5093314;28;20228;-78
2022/01/27 03:32:11;;;;;;;9.57;5.65;;;3.10;99.90;;;;;;5093425;28;20204;-77
2022/01/27 03:34:38;;;;;;;13.90;4.70;;;3.10;99.90;;;;;;5093369;28;20223;-78
2022/01/27 03:37:05;;;;;;;2.08;1.90;;;3.10;99.90;;;;;;5092445;28;20194;-77
2022/01/27 03:39:32;;;;;;;15.13;5.00;;;3.20;99.90;;;;;;5093213;28;20197;-77
2022/01/27 03:42:00;;;;;;;12.52;7.20;;;3.20;99.90;;;;;;5092880;28;20667;-76
2022/01/27 03:44:29;;;;;;;1.15;1.15;;;3.10;99.90;;;;;;5093662;28;20212;-77
2022/01/27 03:46:56;;;;;;;9.35;5.20;;;3.10;99.90;;;;;;5093937;28;20613;-77
2022/01/27 03:49:24;;;;;;;5.82;3.33;;;3.10;99.90;;;;;;5094470;28;20219;-76
2022/01/27 03:51:50;;;;;;;20.55;9.45;;;3.10;99.90;;;;;;5096689;28;20201;-76
2022/01/27 03:54:17;;;;;;;18.77;10.07;;;3.10;99.90;;;;;;5093052;28;20229;-77
2022/01/27 03:56:44;;;;;;;14.55;7.60;;;3.10;99.90;;;;;;5092844;28;20204;-77
2022/01/27 03:59:11;;;;;;;12.60;7.72;;;3.10;99.90;;;;;;5092183;28;20197;-77
2022/01/27 04:01:39;;;;;;;7.13;4.88;;;3.10;99.90;;;;;;5092799;28;20197;-77
2022/01/27 04:04:06;;;;;;;20.55;8.73;;;3.10;99.90;;;;;;5092842;28;20242;-77
2022/01/27 04:06:35;;;;;;;11.82;7.03;;;3.10;99.90;;;;;;5092600;28;20193;-77
2022/01/27 04:09:03;;;;;;;12.55;4.85;;;3.10;99.90;;;;;;5092153;28;20197;-76
2022/01/27 04:11:30;;;;;;;14.95;8.73;;;3.10;99.90;;;;;;5092232;28;20276;-77
2022/01/27 04:13:57;;;;;;;13.30;5.40;;;3.10;99.90;;;;;;5092428;28;20629;-78
2022/01/27 04:16:24;;;;;;;10.75;8.48;;;3.10;99.90;;;;;;5092296;28;20217;-79
2022/01/27 04:18:52;;;;;;;6.18;5.18;;;3.10;99.90;;;;;;5092455;28;20193;-77
2022/01/27 04:21:19;;;;;;;7.00;6.40;;;3.10;99.90;;;;;;5092758;28;20198;-78
2022/01/27 04:23:47;;;;;;;7.43;5.63;;;3.20;99.90;;;;;;5092442;28;20595;-77
2022/01/27 04:26:17;;;;;;;17.85;4.88;;;3.10;99.90;;;;;;5092642;28;20273;-78
2022/01/27 04:28:45;;;;;;;20.83;9.57;;;3.20;99.90;;;;;;5092238;28;20667;-78
2022/01/27 04:31:12;;;;;;;12.05;4.88;;;3.10;99.90;;;;;;5092428;28;20197;-78
2022/01/27 04:33:40;;;;;;;20.65;7.90;;;3.10;99.90;;;;;;5092344;28;20284;-78
2022/01/27 04:36:14;;;;;;;17.95;9.07;;;3.10;99.90;;;;;;5091858;28;20296;-77
2022/01/27 04:38:47;;;;;;;17.10;8.02;;;3.10;99.90;;;;;;5092372;28;20196;-78
2022/01/27 04:41:18;;;;;;;4.75;4.30;;;3.20;99.90;;;;;;5092359;28;20197;-78
2022/01/27 04:43:56;;;;;;;14.63;6.25;;;3.20;99.90;;;;;;5092181;28;20193;-79
2022/01/27 04:46:31;;;;;;;15.73;6.13;;;3.20;99.90;;;;;;5091961;28;20631;-77
2022/01/27 04:49:01;;;;;;;18.77;6.95;;;3.20;99.90;;;;;;5091778;28;20279;-77
2022/01/27 04:51:29;;;;;;;20.75;6.28;;;3.20;99.90;;;;;;5092267;28;20197;-79
2022/01/27 04:54:02;;;;;;;5.18;4.25;;;3.20;99.90;;;;;;5092268;28;20200;-78
2022/01/27 04:56:32;;;;;;;17.65;7.53;;;3.20;99.90;;;;;;5092286;28;20215;-78
2022/01/27 04:59:03;;;;;;;23.45;9.57;;;3.30;99.90;;;;;;5091561;28;20579;-77
2022/01/27 05:01:35;;;;;;;4.10;2.38;;;3.30;99.90;;;;;;5092308;28;20776;-77
2022/01/27 05:04:06;;;;;;;5.68;5.07;;;3.30;99.90;;;;;;5091994;28;20223;-78
2022/01/27 05:06:35;;;;;;;16.58;8.35;;;3.30;99.90;;;;;;5092572;28;20177;-78
2022/01/27 05:09:01;;;;;;;10.15;6.13;;;3.40;99.90;;;;;;5091454;28;20201;-77
2022/01/27 05:11:32;;;;;;;23.48;7.70;;;3.40;99.90;;;;;;5091448;28;20189;-77
2022/01/27 05:14:05;;;;;;;11.98;7.13;;;3.40;99.90;;;;;;5091765;28;20727;-78
2022/01/27 05:16:31;;;;;;;19.00;7.68;;;3.40;99.90;;;;;;5091899;28;20223;-78
2022/01/27 05:18:58;;;;;;;26.17;9.20;;;3.40;99.90;;;;;;5091267;28;20197;-77
2022/01/27 05:21:25;;;;;;;6.53;4.07;;;3.50;99.90;;;;;;5091964;28;20566;-76
2022/01/27 05:23:53;;;;;;;16.05;8.55;;;3.50;99.90;;;;;;5091380;28;20201;-78
2022/01/27 05:26:20;;;;;;;10.60;7.22;;;3.50;99.90;;;;;;5091524;28;20241;-77
2022/01/27 05:28:46;;;;;;;18.95;6.97;;;3.50;99.90;;;;;;5091206;28;20193;-76
2022/01/27 05:31:13;;;;;;;18.10;10.82;;;3.50;99.90;;;;;;5091419;28;20200;-77
2022/01/27 05:33:40;;;;;;;8.07;5.03;;;3.60;99.90;;;;;;5091446;28;20193;-76
2022/01/27 05:36:07;;;;;;;15.02;4.50;;;3.50;99.90;;;;;;5091314;28;20216;-77
2022/01/27 05:38:35;;;;;;;5.68;3.70;;;3.50;99.90;;;;;;5091621;28;20312;-77
2022/01/27 05:41:03;;;;;;;24.42;9.82;;;3.60;99.90;;;;;;5091243;28;20735;-77
2022/01/27 05:43:30;;;;;;;6.50;2.85;;;3.60;99.90;;;;;;5091539;28;20540;-77
2022/01/27 05:45:57;;;;;;;7.47;5.30;;;3.60;99.90;;;;;;5091596;28;20267;-77
2022/01/27 05:48:23;;;;;;;5.28;4.78;;;3.60;99.90;;;;;;5091746;28;20189;-77
2022/01/27 05:50:50;;;;;;;8.20;5.70;;;3.60;99.90;;;;;;5090957;28;20531;-77
2022/01/27 05:53:17;;;;;;;6.22;4.65;;;3.60;99.90;;;;;;5090895;28;20247;-77
2022/01/27 05:55:44;;;;;;;7.05;2.85;;;3.60;99.90;;;;;;5091707;28;20255;-77
2022/01/27 05:58:12;;;;;;;11.48;7.03;;;3.60;99.90;;;;;;5091552;28;20200;-78
2022/01/27 06:00:38;;;;;;;5.43;1.25;;;3.60;99.90;;;;;;5092279;28;20536;-77
2022/01/27 06:03:05;;;;;;;19.10;7.55;;;3.70;99.90;;;;;;5095193;28;20551;-77
2022/01/27 06:05:33;;;;;;;21.75;10.85;;;3.70;99.90;;;;;;5095344;28;20710;-77
2022/01/27 06:07:59;;;;;;;11.02;6.63;;;3.70;99.90;;;;;;5093292;28;20189;-77
2022/01/27 06:10:26;;;;;;;5.32;4.05;;;3.70;99.90;;;;;;5095067;28;20193;-77
2022/01/27 06:12:56;;;;;;;8.82;4.55;;;3.70;99.90;;;;;;5094896;28;20193;-78
2022/01/27 06:15:26;;;;;;;12.35;5.28;;;3.70;99.90;;;;;;5094396;28;20213;-78
2022/01/27 06:17:53;;;;;;;4.50;3.75;;;3.80;99.90;;;;;;5094616;28;20189;-78
2022/01/27 06:20:21;;;;;;;7.15;3.47;;;3.80;99.90;;;;;;5094647;28;20663;-77
2022/01/27 06:22:47;;;;;;;5.85;4.75;;;3.90;99.90;;;;;;5094425;28;20197;-78
2022/01/27 06:25:16;;;;;;;19.00;6.75;;;3.90;99.90;;;;;;5094599;28;20258;-78
2022/01/27 06:27:43;;;;;;;13.55;8.25;;;3.90;99.90;;;;;;5094914;28;20193;-78
2022/01/27 06:30:12;;;;;;;10.82;6.28;;;4.00;99.90;;;;;;5093388;28;20201;-78
2022/01/27 06:32:41;;;;;;;14.88;8.55;;;4.00;99.90;;;;;;5095508;28;20200;-78
2022/01/27 06:35:08;;;;;;;22.77;9.98;;;4.00;99.90;;;;;;5094076;28;20220;-77
2022/01/27 06:37:36;;;;;;;3.72;2.45;;;4.10;99.90;;;;;;5094835;28;20200;-78
2022/01/27 06:40:04;;;;;;;13.27;4.50;;;4.20;99.90;;;;;;5093763;28;20194;-78
2022/01/27 06:42:31;;;;;;;17.92;7.20;;;4.20;99.90;;;;;;5093661;28;20205;-77
2022/01/27 06:44:57;;;;;;;9.65;5.93;;;4.30;99.90;;;;;;5093934;28;20270;-78
2022/01/27 06:47:24;;;;;;;9.30;2.35;;;4.40;99.90;;;;;;5095305;28;20247;-78
2022/01/27 06:49:52;;;;;;;6.85;2.58;;;4.40;99.90;;;;;;5093078;28;20202;-78
2022/01/27 06:52:21;;;;;;;8.80;4.80;;;4.50;99.90;;;;;;5093943;28;20292;-77
2022/01/27 06:54:49;;;;;;;3.63;3.25;;;4.60;99.90;;;;;;5093913;28;20224;-78
2022/01/27 06:57:16;;;;;;;13.32;3.80;;;4.60;99.90;;;;;;5093789;28;20214;-78
2022/01/27 06:59:42;;;;;;;9.80;6.45;;;4.70;99.90;;;;;;5093819;28;20201;-78
2022/01/27 07:02:09;;;;;;;6.68;4.80;;;4.70;99.90;;;;;;5093658;28;20200;-77
2022/01/27 07:04:36;;;;;;;6.40;4.72;;;4.70;99.90;;;;;;5093434;28;20225;-78
2022/01/27 07:07:04;;;;;;;13.57;6.93;;;4.70;99.90;;;;;;5093765;28;20200;-78
2022/01/27 07:09:31;;;;;;;4.13;3.63;;;4.70;99.90;;;;;;5092998;28;20267;-78
2022/01/27 07:11:58;;;;;;;6.90;5.90;;;4.80;99.90;;;;;;5093464;28;20266;-78
2022/01/27 07:14:24;;;;;;;6.60;5.03;;;4.80;99.90;;;;;;5093083;28;20224;-78
2022/01/27 07:16:51;;;;;;;1.58;1.48;;;4.90;99.90;;;;;;5093595;28;20220;-78
2022/01/27 07:19:18;;;;;;;14.77;8.05;;;4.90;99.90;;;;;;5092570;28;20190;-78
2022/01/27 07:21:45;;;;;;;11.85;7.55;;;4.90;99.90;;;;;;5093162;28;20193;-76
2022/01/27 07:24:13;;;;;;;3.13;2.55;;;4.90;99.90;;;;;;5092626;28;20706;-76
2022/01/27 07:26:39;;;;;;;6.15;4.63;;;4.90;99.90;;;;;;5093564;28;20605;-77
2022/01/27 07:29:06;;;;;;;7.47;4.60;;;4.80;99.90;;;;;;5092495;28;20190;-77
2022/01/27 07:31:33;;;;;;;9.10;6.63;;;4.80;99.90;;;;;;5092819;28;20208;-77
2022/01/27 07:33:59;;;;;;;5.60;3.70;;;4.70;99.90;;;;;;5092806;28;20224;-76
2022/01/27 07:36:28;;;;;;;15.50;4.47;;;4.70;99.90;;;;;;5093267;28;20216;-77
2022/01/27 07:38:54;;;;;;;6.22;1.55;;;4.70;99.90;;;;;;5092337;28;20662;-77
2022/01/27 07:41:22;;;;;;;4.57;4.10;;;4.70;99.90;;;;;;5093023;28;20200;-77
2022/01/27 07:43:49;;;;;;;3.70;2.30;;;4.70;99.90;;;;;;5092725;28;20251;-75
2022/01/27 07:46:16;;;;;;;14.07;6.85;;;4.70;99.90;;;;;;5092919;28;20609;-77
2022/01/27 07:48:43;;;;;;;5.53;3.78;;;4.70;99.90;;;;;;5092346;28;20201;-77
2022/01/27 07:51:10;;;;;;;18.25;10.40;;;4.80;99.90;;;;;;5092528;28;20250;-77
2022/01/27 07:53:38;;;;;;;6.43;4.25;;;4.80;99.90;;;;;;5092811;28;20688;-77
2022/01/27 07:56:06;;;;;;;9.35;5.20;;;4.80;99.90;;;;;;5092709;28;20582;-76
2022/01/27 07:58:38;;;;;;;2.90;2.70;;;4.80;99.90;;;;;;5092103;28;20215;-77
2022/01/27 08:01:07;;;;;;;2.05;1.95;;;4.80;99.90;;;;;;5091997;28;20188;-77
2022/01/27 08:03:34;;;;;;;5.00;4.50;;;4.80;99.90;;;;;;5092527;28;20204;-77
2022/01/27 08:06:01;;;;;;;5.55;4.03;;;4.80;99.90;;;;;;5092284;28;20209;-77
2022/01/27 08:08:28;;;;;;;2.13;1.92;;;4.80;99.90;;;;;;5091775;28;20193;-77
2022/01/27 08:10:54;;;;;;;0.80;0.80;;;4.80;99.90;;;;;;5091402;28;20226;-77
2022/01/27 08:13:21;;;;;;;1.08;1.05;;;4.90;99.90;;;;;;5092048;28;20197;-77
2022/01/27 08:15:49;;;;;;;0.98;0.70;;;4.80;99.90;;;;;;5091931;28;20221;-77
2022/01/27 08:18:15;;;;;;;3.15;2.50;;;4.90;99.90;;;;;;5092458;28;20274;-77
2022/01/27 08:20:43;;;;;;;4.10;3.80;;;4.80;99.90;;;;;;5092052;28;20201;-77
2022/01/27 08:23:10;;;;;;;18.98;7.47;;;4.80;99.90;;;;;;5091700;28;20200;-77
2022/01/27 08:25:37;;;;;;;6.57;5.03;;;4.80;99.90;;;;;;5094758;28;20721;-78
2022/01/27 08:28:06;;;;;;;13.82;5.20;;;4.80;99.90;;;;;;5092126;28;20658;-77
2022/01/27 08:30:41;;;;;;;1.90;1.80;;;4.70;99.90;;;;;;5091948;28;20197;-77
2022/01/27 08:33:14;;;;;;;14.25;2.42;;;4.70;99.90;;;;;;5091982;28;20245;-77
2022/01/27 08:35:41;;;;;;;9.40;4.05;;;4.70;99.90;;;;;;5091893;28;20217;-77
2022/01/27 08:38:08;;;;;;;7.38;4.25;;;4.70;99.90;;;;;;5091980;28;20190;-76
2022/01/27 08:40:35;;;;;;;4.13;3.70;;;4.70;99.90;;;;;;5092902;28;20571;-77
2022/01/27 08:43:02;;;;;;;5.78;3.08;;;4.70;99.90;;;;;;5092728;28;20201;-77
2022/01/27 08:45:29;;;;;;;5.70;5.22;;;4.80;99.90;;;;;;5091497;28;20218;-77
2022/01/27 08:47:58;;;;;;;18.40;8.18;;;4.80;99.90;;;;;;5091852;28;20558;-77
2022/01/27 08:50:26;;;;;;;7.72;5.53;;;4.80;99.90;;;;;;5090969;28;20680;-78
2022/01/27 08:52:53;;;;;;;4.80;3.50;;;4.80;99.90;;;;;;5091753;28;20189;-76
2022/01/27 08:55:21;;;;;;;13.07;5.82;;;4.80;99.90;;;;;;5092181;28;20279;-76
2022/01/27 08:57:48;;;;;;;4.95;2.95;;;4.80;99.90;;;;;;5091066;28;20671;-76
2022/01/27 09:00:16;;;;;;;3.78;1.58;;;4.90;99.90;;;;;;5091092;28;20193;-78
2022/01/27 09:02:42;;;;;;;6.18;5.30;;;4.80;99.90;;;;;;5091525;28;20200;-78
2022/01/27 09:05:09;;;;;;;21.67;9.70;;;4.90;99.90;;;;;;5091422;28;20216;-78
2022/01/27 09:07:38;;;;;;;6.68;4.00;;;4.90;99.90;;;;;;5091381;28;20242;-78
2022/01/27 09:10:05;;;;;;;1.75;1.75;;;4.90;99.90;;;;;;5090962;28;20666;-78
2022/01/27 09:12:32;;;;;;;3.45;2.25;;;4.90;99.90;;;;;;5091157;28;20200;-77
2022/01/27 09:15:01;;;;;;;13.95;5.25;;;4.90;99.90;;;;;;5091334;28;20225;-78
2022/01/27 09:17:29;;;;;;;9.38;4.57;;;4.90;99.90;;;;;;5091120;28;20578;-79
2022/01/27 09:19:55;;;;;;;7.03;3.25;;;4.90;99.90;;;;;;5091076;28;20538;-78
2022/01/27 09:22:23;;;;;;;9.90;7.18;;;4.90;99.90;;;;;;5091189;28;20663;-78
2022/01/27 09:24:56;;;;;;;7.80;2.22;;;4.90;99.90;;;;;;5091515;28;20244;-78
2022/01/27 09:27:23;;;;;;;8.00;5.18;;;4.90;99.90;;;;;;5092310;28;20209;-78
2022/01/27 09:29:50;;;;;;;4.70;3.85;;;4.90;99.90;;;;;;5091416;28;20197;-79
2022/01/27 09:32:17;;;;;;;9.98;5.75;;;4.90;99.90;;;;;;5091212;28;20619;-78
2022/01/27 09:34:44;;;;;;;6.25;4.72;;;5.00;99.90;;;;;;5091048;28;20213;-78
2022/01/27 09:37:11;;;;;;;11.05;6.72;;;5.00;99.90;;;;;;5094761;28;20234;-78
2022/01/27 09:39:39;;;;;;;6.70;2.90;;;5.00;99.90;;;;;;5094685;28;20197;-78
2022/01/27 09:42:08;;;;;;;19.73;5.32;;;5.00;99.90;;;;;;5095413;28;20216;-77
2022/01/27 09:44:37;;;;;;;2.80;2.70;;;5.00;99.90;;;;;;5094861;28;20217;-78
2022/01/27 09:47:07;;;;;;;2.05;1.88;;;5.00;99.90;;;;;;5095310;28;20228;-78
2022/01/27 09:49:37;;;;;;;11.05;5.13;;;5.10;99.90;;;;;;5094824;28;20590;-78
2022/01/27 09:52:04;;;;;;;6.95;4.53;;;5.10;99.90;;;;;;5096194;28;20193;-77
2022/01/27 09:54:31;;;;;;;8.38;4.43;;;5.10;99.90;;;;;;5094896;28;20702;-78
2022/01/27 09:56:58;;;;;;;7.70;3.08;;;5.10;99.90;;;;;;5095555;28;20208;-77
2022/01/27 09:59:26;;;;;;;5.47;2.63;;;5.10;99.90;;;;;;5094673;28;20269;-78
2022/01/27 10:01:56;;;;;;;4.00;1.50;;;5.10;99.90;;;;;;5095190;28;20197;-78
2022/01/27 10:04:26;;;;;;;23.77;8.30;;;5.20;99.90;;;;;;5094719;28;20282;-78
2022/01/27 10:06:58;;;;;;;6.63;5.40;;;5.20;99.90;;;;;;5095096;28;20686;-78
2022/01/27 10:09:27;;;;;;;9.88;6.82;;;5.10;99.90;;;;;;5093660;28;20225;-78
2022/01/27 10:11:54;;;;;;;8.00;6.72;;;5.20;99.90;;;;;;5095823;28;20225;-78
2022/01/27 10:14:24;;;;;;;3.70;3.15;;;5.20;99.90;;;;;;5094140;28;20706;-78
2022/01/27 10:16:55;;;;;;;3.97;3.55;;;5.20;99.90;;;;;;5094781;28;20213;-78
2022/01/27 10:19:25;;;;;;;5.72;5.22;;;5.20;99.90;;;;;;5094590;28;20596;-78
2022/01/27 10:22:00;;;;;;;5.35;3.10;;;5.30;99.90;;;;;;5094717;28;20238;-79
2022/01/27 10:24:29;;;;;;;7.43;6.47;;;5.20;99.90;;;;;;5094651;28;20578;-78
2022/01/27 10:27:20;;;;;;;3.85;2.65;;;5.20;99.90;;;;;;5094600;28;20227;-77
2022/01/27 10:30:04;;;;;;;2.15;2.05;;;5.30;99.90;;;;;;5093951;28;20178;-75
2022/01/27 10:32:41;;;;;;;5.38;1.80;;;5.30;99.90;;;;;;5094494;28;20184;-76
2022/01/27 10:35:09;;;;;;;13.77;6.82;;;5.30;99.90;;;;;;5093987;28;20213;-77
2022/01/27 10:38:01;;;;;;;4.05;3.65;;;5.40;99.90;;;;;;5093896;28;20230;-77
2022/01/27 10:40:30;;;;;;;3.95;2.08;;;5.40;99.90;;;;;;5093097;28;20689;-77
2022/01/27 10:43:04;;;;;;;2.78;2.67;;;5.40;99.90;;;;;;5094212;28;20198;-76
2022/01/27 10:45:31;;;;;;;2.63;2.20;;;5.40;99.90;;;;;;5094005;28;20218;-77
2022/01/27 10:48:12;;;;;;;3.72;2.13;;;5.40;99.90;;;;;;5093073;28;20189;-75
2022/01/27 10:50:52;;;;;;;2.88;1.35;;;5.40;99.90;;;;;;5093435;28;20185;-76
2022/01/27 10:53:20;;;;;;;3.53;2.38;;;5.50;99.90;;;;;;5093441;28;20177;-76
2022/01/27 10:56:01;;;;;;;0.93;0.85;;;5.50;99.90;;;;;;5093667;28;20256;-77
2022/01/27 10:58:28;;;;;;;4.22;2.40;;;5.60;99.90;;;;;;5093221;28;20582;-76
2022/01/27 11:00:59;;;;;;;6.28;1.20;;;5.60;99.90;;;;;;5092996;28;20617;-77
2022/01/27 11:03:28;;;;;;;2.33;2.22;;;5.60;99.90;;;;;;5093585;28;20204;-77
2022/01/27 11:05:56;;;;;;;3.85;3.65;;;5.60;99.90;;;;;;5093119;28;20763;-76
2022/01/27 11:08:26;;;;;;;1.25;1.25;;;5.70;99.90;;;;;;5093834;28;20189;-77
2022/01/27 11:10:53;;;;;;;10.82;5.70;;;5.70;99.90;;;;;;5092983;28;20209;-76
2022/01/27 11:13:22;;;;;;;8.07;5.63;;;5.70;99.90;;;;;;5092901;28;20193;-77
2022/01/27 11:15:49;;;;;;;5.40;4.50;;;5.70;99.90;;;;;;5094000;28;20273;-77
2022/01/27 11:18:16;;;;;;;6.57;4.28;;;5.70;99.90;;;;;;5093514;28;20203;-77
2022/01/27 11:20:55;;;;;;;7.15;4.55;;;5.70;99.90;;;;;;5093200;28;20193;-77
2022/01/27 11:26:16;;;;;;;3.97;3.40;;;5.70;99.90;;;;;;5092573;28;20228;-77
2022/01/27 11:28:45;;;;;;;3.15;1.90;;;5.70;99.90;;;;;;5093343;28;20173;-77
2022/01/27 11:31:38;;;;;;;2.70;2.55;;;5.70;99.90;;;;;;5092964;28;20201;-77
2022/01/27 11:34:06;;;;;;;2.53;2.42;;;5.70;99.90;;;;;;5092653;28;20505;-77
2022/01/27 11:36:36;;;;;;;10.55;6.60;;;5.80;99.90;;;;;;5092019;28;20419;-76
2022/01/27 11:39:12;;;;;;;5.70;5.18;;;5.80;99.90;;;;;;5092771;28;20193;-76
2022/01/27 11:41:44;;;;;;;4.45;2.80;;;5.80;99.90;;;;;;5092981;28;20288;-75
2022/01/27 11:44:25;;;;;;;1.83;1.73;;;5.80;99.90;;;;;;5093185;28;20637;-77
2022/01/27 11:47:19;;;;;;;5.18;4.78;;;5.90;99.90;;;;;;5092906;28;20197;-76
2022/01/27 11:49:56;;;;;;;2.22;2.03;;;5.90;99.90;;;;;;5091911;28;20200;-76
2022/01/27 11:52:28;;;;;;;4.82;3.28;;;6.00;99.90;;;;;;5092348;28;20215;-77
2022/01/27 11:54:57;;;;;;;1.00;0.90;;;6.00;99.90;;;;;;5092494;28;20219;-76
2022/01/27 11:57:39;;;;;;;1.58;1.45;;;6.00;99.90;;;;;;5092675;28;20218;-77
2022/01/27 12:00:11;;;;;;;2.30;1.55;;;6.00;99.90;;;;;;5089628;28;20198;-77
2022/01/27 12:03:16;;;;;;;2.60;2.03;;;6.00;99.90;;;;;;5092888;28;20193;-77
2022/01/27 12:05:46;;;;;;;9.98;3.80;;;6.00;99.90;;;;;;5092710;28;20724;-76
2022/01/27 12:08:26;;;;;;;6.80;4.68;;;6.00;99.90;;;;;;5092272;28;20188;-77
2022/01/27 12:10:58;;;;;;;1.15;1.05;;;6.10;99.90;;;;;;5091924;28;20211;-77
2022/01/27 12:13:55;;;;;;;2.47;2.28;;;6.10;99.90;;;;;;5092715;28;20707;-77
2022/01/27 12:19:09;;;;;;;3.15;2.00;;;6.10;99.90;;;;;;5092578;28;20259;-78
2022/01/27 12:21:39;;;;;;;11.93;2.53;;;6.20;99.90;;;;;;5092984;28;20243;-77
2022/01/27 12:24:21;;;;;;;2.55;2.45;;;6.20;99.90;;;;;;5089495;28;20206;-76
2022/01/27 12:26:49;;;;;;;2.58;1.15;;;6.20;99.90;;;;;;5091827;28;20255;-77
2022/01/27 12:29:24;;;;;;;3.28;1.98;;;6.20;99.90;;;;;;5092165;28;20199;-77
2022/01/27 12:31:51;;;;;;;1.38;0.70;;;6.20;99.90;;;;;;5092777;28;20238;-77
2022/01/27 12:34:19;;;;;;;0.50;0.50;;;6.30;99.90;;;;;;5091926;28;20217;-76
2022/01/27 12:37:02;;;;;;;1.58;1.48;;;6.30;99.90;;;;;;5092167;28;20609;-77
2022/01/27 12:39:33;;;;;;;3.55;2.25;;;6.30;99.90;;;;;;5092536;28;20193;-75
2022/01/27 12:42:02;;;;;;;2.17;2.08;;;6.40;99.90;;;;;;5090830;28;20201;-78
2022/01/27 12:44:30;;;;;;;2.25;2.15;;;6.40;99.90;;;;;;5088917;28;20248;-78
2022/01/27 12:47:09;;;;;;;1.58;1.48;;;6.40;99.90;;;;;;5092304;28;20187;-75
2022/01/27 12:49:45;;;;;;;0.88;0.88;;;6.40;99.90;;;;;;5092046;28;20195;-78
2022/01/27 12:52:16;;;;;;;2.20;1.60;;;6.40;99.90;;;;;;5092310;28;20205;-77
2022/01/27 12:54:46;;;;;;;5.95;3.85;;;6.40;99.90;;;;;;5092509;28;20265;-77
2022/01/27 12:57:13;;;;;;;1.88;0.98;;;6.50;99.90;;;;;;5092639;28;20692;-77
2022/01/27 12:59:42;;;;;;;3.28;2.05;;;6.50;99.90;;;;;;5091992;28;20225;-78
2022/01/27 13:02:11;;;;;;;3.35;1.60;;;6.50;99.90;;;;;;5092216;28;20194;-77
2022/01/27 13:04:39;;;;;;;0.40;0.40;;;6.60;99.90;;;;;;5091822;28;20226;-77
2022/01/27 13:07:07;;;;;;;2.55;1.77;;;6.60;99.90;;;;;;5091584;28;20194;-78
2022/01/27 13:09:35;;;;;;;0.90;0.90;;;6.60;99.90;;;;;;5090989;28;20200;-78
2022/01/27 13:12:31;;;;;;;0.70;0.55;;;6.60;99.90;;;;;;5092457;28;20704;-78
2022/01/27 13:15:05;;;;;;;8.85;6.70;;;6.60;99.90;;;;;;5091709;28;20304;-77
2022/01/27 13:17:37;;;;;;;1.67;1.58;;;6.70;99.90;;;;;;5091593;28;20240;-77
2022/01/27 13:20:15;;;;;;;1.95;1.85;;;6.70;99.90;;;;;;5091670;28;20175;-77
2022/01/27 13:22:52;;;;;;;5.68;3.72;;;6.70;99.90;;;;;;5091426;28;20189;-77
2022/01/27 13:25:20;;;;;;;2.70;2.55;;;6.70;99.90;;;;;;5091711;28;20755;-77
2022/01/27 13:30:41;;;;;;;10.75;4.72;;;6.70;99.90;;;;;;5129521;27;20508;-76
2022/01/27 13:33:12;;;;;;;1.50;1.50;;;6.80;99.90;;;;;;5129958;28;20194;-76
2022/01/27 13:35:39;;;;;;;1.67;1.58;;;6.80;99.90;;;;;;5130075;28;20597;-76
2022/01/27 13:38:18;;;;;;;3.35;1.02;;;6.80;99.90;;;;;;5129717;27;20202;-75
2022/01/27 13:43:36;;;;;;;1.77;1.38;;;6.80;99.90;;;;;;5130318;28;20200;-77
2022/01/27 13:46:05;;;;;;;1.25;1.23;;;6.80;99.90;;;;;;5129174;27;20252;-77
2022/01/27 13:48:40;;;;;;;3.28;3.03;;;6.90;99.90;;;;;;5129897;27;20195;-77